Terminal Aerodrome Forecast
Issued by NWS Twin Cities, MN

Home | Current Version | Previous Version | Text Only | Print | Product List | Glossary On
Versions: 1 2 3 4 5 6 7 8 9 10 11 12 13 14 15 16 17
000
FTUS43 KMPX 192300
TAFEAU
TAF
KEAU 192326Z 2000/2024 19010KT P6SM SCT060 BKN120
     FM200600 18008KT P6SM SCT070 BKN120
     FM201400 19011G18KT P6SM SCT060 BKN200=

USA.gov is the U.S. government's official web portal to all federal, state and local government web resources and services.